Flight Number: EUR1411 Duration: 1:15
Departure: Geneva Cointrin Airport (LSGG) at 21:15 Distance: 386 Nm
Arrival: Gatwick Airport (EGKK) at 22:30 Equipment: B737

Weather Information
Geneve-Cointrin, Switzerland (LSGG) 46-15N 006-08E 416M Aug 17, 2018 - 04:50 PM EDT / 2018.08.17 2050 UTC
Wind: Variable at 2 MPH (2 KT):0
Visibility: greater than 7 mile(s):0
Sky conditions: mostly cloudy Temperature: 69 F (21 C) Dew Point: 62 F (17 C) Relative Humidity: 77% Pressure (altimeter): 30.12 in. Hg (1020 hPa)
ob: LSGG 172050Z VRB02KT 9999 BKN070 21/17 Q1020 NOSIG cycle: 21
Sunrise: 04:41 Sunset: 18:37 (UTC)

London / Gatwick Airport, United Kingdom (EGKK) 51-09N 000-11W 0M Aug 17, 2018 - 04:50 PM EDT / 2018.08.17 2050 UTC
Wind: from the SW (230 degrees) at 7 MPH (6 KT):0
Visibility: greater than 7 mile(s):0
Sky conditions: mostly cloudy Temperature: 62 F (17 C) Dew Point: 57 F (14 C) Relative Humidity: 82% Pressure (altimeter): 30.15 in. Hg (1021 hPa)
ob: EGKK 172050Z 23006KT 9999 BKN039 17/14 Q1021 cycle: 21
Sunrise: 04:55 Sunset: 19:14 (UTC)

TAF:2018/08/17 18:20 TAF EGKK 171657Z 1718/1824 25008KT 9999 SCT040 PROB30 TEMPO 1800/1807 BKN014 PROB30 TEMPO 1822/1824 BKN007

Previous Pireps for this route
Date Aircraft Flight time Fuel used Landing rate On time
2014-01-11B73702.3610130-315No
2014-02-17B73701.4813947-544No
2015-01-05B7371.227616-86No
2016-01-23B7372.06126000No
2016-02-23CRJ7001.333444-176Charter
2016-03-21B73701.296924-158No
2016-04-18B73701.327618-361Yes
2016-08-28B73700.599847-306Yes
2016-10-28B7371.1478790No
2018-03-27B73702.387058-400No
(pireps marked green are flown by you)

Route map